Time;durP1;ratioP1;P1;durP2;ratioP2;P2;SDS_P1;SDS_P2;PMS_P1;PMS_P2;Temp;Humidity;BMP_temperature;BMP_pressure;BME280_temperature;BME280_humidity;BME280_pressure;Samples;Min_cycle;Max_cycle;Signal;HPM_P1;HPM_P2
2024/01/13 00:00:43;;;;;;;12.88;3.47;;;3.90;99.90;;;;;;5058655;28;20248;-49
2024/01/13 00:03:09;;;;;;;12.85;3.53;;;3.80;99.90;;;;;;5064102;28;20090;-47
2024/01/13 00:05:35;;;;;;;11.02;3.72;;;3.80;99.90;;;;;;5063618;28;20043;-50
2024/01/13 00:08:00;;;;;;;11.85;4.05;;;3.70;99.90;;;;;;5063102;28;20044;-48
2024/01/13 00:10:26;;;;;;;13.57;3.67;;;3.70;99.90;;;;;;5064417;28;20044;-50
2024/01/13 00:12:52;;;;;;;9.82;3.63;;;3.70;99.90;;;;;;5065487;28;20068;-50
2024/01/13 00:15:18;;;;;;;15.52;3.88;;;3.90;99.90;;;;;;5064154;28;20127;-50
2024/01/13 00:17:44;;;;;;;10.25;3.92;;;3.70;99.90;;;;;;5065108;28;20044;-50
2024/01/13 00:20:10;;;;;;;11.02;4.07;;;3.70;99.90;;;;;;5064376;28;20112;-47
2024/01/13 00:22:36;;;;;;;13.07;3.80;;;3.80;99.90;;;;;;5062768;28;20120;-48
2024/01/13 00:25:02;;;;;;;9.63;3.90;;;3.80;99.90;;;;;;5058036;28;20043;-50
2024/01/13 00:27:28;;;;;;;10.95;3.72;;;3.80;99.90;;;;;;5064077;28;20044;-47
2024/01/13 00:29:54;;;;;;;14.02;3.75;;;3.90;99.90;;;;;;5063130;28;20521;-48
2024/01/13 00:32:20;;;;;;;7.90;3.33;;;3.90;99.90;;;;;;5062527;28;20036;-50
2024/01/13 00:34:45;;;;;;;7.55;3.42;;;4.00;99.90;;;;;;5057870;28;20531;-50
2024/01/13 00:37:11;;;;;;;12.38;3.58;;;4.00;99.90;;;;;;5062764;28;20036;-48
2024/01/13 00:39:37;;;;;;;9.10;3.20;;;3.90;99.90;;;;;;5063500;28;20801;-48
2024/01/13 00:42:02;;;;;;;13.68;3.85;;;3.90;99.90;;;;;;5059691;28;20128;-48
2024/01/13 00:44:28;;;;;;;6.60;3.53;;;4.00;99.90;;;;;;5058667;28;20386;-47
2024/01/13 00:46:54;;;;;;;10.32;4.25;;;3.90;99.90;;;;;;5045300;28;20056;-50
2024/01/13 00:49:20;;;;;;;10.23;3.50;;;3.80;99.90;;;;;;5063334;28;20028;-48
2024/01/13 00:51:45;;;;;;;10.98;3.70;;;3.80;99.90;;;;;;5062759;28;20455;-50
2024/01/13 00:54:11;;;;;;;6.80;3.17;;;3.80;99.90;;;;;;5058024;28;20448;-48
2024/01/13 00:56:37;;;;;;;8.18;2.90;;;3.70;99.90;;;;;;5055086;28;20403;-47
2024/01/13 00:59:03;;;;;;;10.00;2.55;;;3.90;99.90;;;;;;5054657;28;20033;-47
2024/01/13 01:01:28;;;;;;;6.20;2.20;;;3.70;99.90;;;;;;5058126;28;20454;-50
2024/01/13 01:03:54;;;;;;;6.07;2.60;;;3.70;99.90;;;;;;5048587;28;20049;-53
2024/01/13 01:06:20;;;;;;;8.68;2.92;;;3.90;99.90;;;;;;5050561;28;20044;-49
2024/01/13 01:08:45;;;;;;;8.05;2.55;;;3.70;99.90;;;;;;5052331;28;20128;-48
2024/01/13 01:11:11;;;;;;;6.70;2.78;;;3.80;99.90;;;;;;5063448;28;20036;-50
2024/01/13 01:13:37;;;;;;;10.77;2.72;;;3.70;99.90;;;;;;5063422;28;20044;-49
2024/01/13 01:16:04;;;;;;;9.05;2.50;;;3.70;99.90;;;;;;5044627;28;20043;-50
2024/01/13 01:18:30;;;;;;;10.70;2.95;;;3.70;99.90;;;;;;5060841;28;20565;-49
2024/01/13 01:20:55;;;;;;;17.45;2.97;;;3.50;99.90;;;;;;5063255;28;20032;-48
2024/01/13 01:23:21;;;;;;;9.85;3.03;;;3.60;99.90;;;;;;5059647;28;20654;-51
2024/01/13 01:25:47;;;;;;;8.13;2.75;;;3.60;99.90;;;;;;5062904;28;20495;-48
2024/01/13 01:28:12;;;;;;;8.18;2.45;;;3.60;99.90;;;;;;5050027;28;20507;-47
2024/01/13 01:30:38;;;;;;;11.68;3.35;;;3.60;99.90;;;;;;5060223;28;20047;-50
2024/01/13 01:33:04;;;;;;;5.78;2.53;;;3.60;99.90;;;;;;5062057;28;20074;-49
2024/01/13 01:35:30;;;;;;;10.48;2.55;;;3.80;99.90;;;;;;5060794;28;20067;-47
2024/01/13 01:37:56;;;;;;;11.13;3.55;;;3.70;99.90;;;;;;5061339;28;20040;-47
2024/01/13 01:40:24;;;;;;;7.35;2.80;;;3.80;99.90;;;;;;5062615;28;20052;-49
2024/01/13 01:42:50;;;;;;;11.38;2.80;;;3.90;99.90;;;;;;5063344;28;20227;-52
2024/01/13 01:45:16;;;;;;;4.18;2.60;;;3.70;99.90;;;;;;5046079;28;20517;-48
2024/01/13 01:47:43;;;;;;;6.22;3.17;;;3.80;99.90;;;;;;5063233;28;20085;-48
2024/01/13 01:50:10;;;;;;;11.23;3.35;;;3.70;99.90;;;;;;5059683;28;20116;-49
2024/01/13 01:52:37;;;;;;;7.75;3.33;;;3.80;99.90;;;;;;5060347;28;20503;-47
2024/01/13 01:55:04;;;;;;;9.93;3.53;;;3.80;99.90;;;;;;5058154;28;20032;-49
2024/01/13 01:57:30;;;;;;;8.27;3.05;;;3.80;99.90;;;;;;5061477;28;20518;-51
2024/01/13 01:59:56;;;;;;;7.65;3.55;;;3.80;99.90;;;;;;5039915;28;20676;-49
2024/01/13 02:02:22;;;;;;;8.55;3.38;;;3.70;99.90;;;;;;5058680;28;20403;-48
2024/01/13 02:04:48;;;;;;;11.32;3.33;;;3.80;99.90;;;;;;5062972;28;20161;-50
2024/01/13 02:07:14;;;;;;;11.75;3.67;;;3.90;99.90;;;;;;5061767;28;20071;-48
2024/01/13 02:09:42;;;;;;;9.38;3.33;;;3.90;99.90;;;;;;5060859;28;20051;-49
2024/01/13 02:12:07;;;;;;;9.18;3.38;;;3.90;99.90;;;;;;5061626;28;20033;-48
2024/01/13 02:14:33;;;;;;;7.22;3.78;;;3.90;99.90;;;;;;5059146;28;20105;-49
2024/01/13 02:16:59;;;;;;;5.28;2.90;;;3.90;99.90;;;;;;5055282;28;20040;-47
2024/01/13 02:19:33;;;;;;;8.52;3.50;;;3.80;99.90;;;;;;5044383;28;20442;-49
2024/01/13 02:22:00;;;;;;;12.10;3.67;;;4.00;99.90;;;;;;5056713;28;20059;-47
2024/01/13 02:24:25;;;;;;;14.63;4.25;;;3.90;99.90;;;;;;5061453;28;20459;-50
2024/01/13 02:26:51;;;;;;;6.88;3.13;;;3.80;99.90;;;;;;5061880;28;20102;-49
2024/01/13 02:29:17;;;;;;;6.63;2.90;;;3.90;99.90;;;;;;5061469;28;20045;-48
2024/01/13 02:31:42;;;;;;;16.20;3.50;;;4.00;99.90;;;;;;5062799;28;20553;-50
2024/01/13 02:34:08;;;;;;;12.98;3.20;;;3.90;99.90;;;;;;5063565;28;20105;-47
2024/01/13 02:36:34;;;;;;;7.97;3.25;;;3.80;99.90;;;;;;5061833;28;20047;-48
2024/01/13 02:39:00;;;;;;;5.53;2.83;;;4.00;99.90;;;;;;5044561;28;20522;-48
2024/01/13 02:41:25;;;;;;;11.55;3.35;;;4.00;99.90;;;;;;5045032;28;20036;-47
2024/01/13 02:43:51;;;;;;;8.30;2.63;;;3.90;99.90;;;;;;5058962;28;20585;-49
2024/01/13 02:46:17;;;;;;;11.10;3.03;;;4.00;99.90;;;;;;5061931;28;20403;-48
2024/01/13 02:48:53;;;;;;;6.15;2.97;;;4.10;99.90;;;;;;5061752;28;20072;-49
2024/01/13 02:51:20;;;;;;;8.60;3.30;;;4.00;99.90;;;;;;5062162;28;20107;-48
2024/01/13 02:53:46;;;;;;;7.60;3.50;;;3.90;99.90;;;;;;5044283;28;21101;-49
2024/01/13 02:56:12;;;;;;;10.63;3.75;;;3.90;99.90;;;;;;5062355;28;20044;-49
2024/01/13 02:58:37;;;;;;;9.38;2.63;;;3.90;99.90;;;;;;5061603;28;20043;-49
2024/01/13 03:01:06;;;;;;;8.02;2.83;;;4.10;99.90;;;;;;5053567;28;20037;-48
2024/01/13 03:03:35;;;;;;;11.13;2.40;;;3.90;99.90;;;;;;5056447;28;20562;-50
2024/01/13 03:06:03;;;;;;;;;;;4.00;99.90;;;;;;5039122;28;20503;-48
2024/01/13 03:08:29;;;;;;;9.25;2.40;;;4.00;99.90;;;;;;5061370;28;19929;-50
2024/01/13 03:10:54;;;;;;;8.90;2.55;;;3.90;99.90;;;;;;5062549;28;20051;-47
2024/01/13 03:13:20;;;;;;;6.88;2.45;;;3.90;99.90;;;;;;5060773;28;20040;-50
2024/01/13 03:15:46;;;;;;;9.10;2.50;;;3.90;99.90;;;;;;5055981;28;20025;-49
2024/01/13 03:18:12;;;;;;;9.82;2.22;;;3.80;99.90;;;;;;5063223;28;20572;-50
2024/01/13 03:20:37;;;;;;;7.80;2.30;;;3.90;99.90;;;;;;5065881;28;20036;-48
2024/01/13 03:23:03;;;;;;;6.38;2.30;;;4.00;99.90;;;;;;5061625;28;20399;-49
2024/01/13 03:25:29;;;;;;;7.75;2.50;;;3.80;99.90;;;;;;5065037;28;20048;-50
2024/01/13 03:27:55;;;;;;;8.70;2.53;;;4.00;99.90;;;;;;5065067;28;21519;-50
2024/01/13 03:30:20;;;;;;;5.05;2.55;;;3.90;99.90;;;;;;5072255;28;20136;-48
2024/01/13 03:32:46;;;;;;;5.43;2.42;;;3.90;99.90;;;;;;5064953;28;20076;-48
2024/01/13 03:35:12;;;;;;;5.68;2.10;;;3.80;99.90;;;;;;5065124;28;20036;-52
2024/01/13 03:37:38;;;;;;;8.02;2.53;;;3.80;99.90;;;;;;5063550;28;20040;-49
2024/01/13 03:40:05;;;;;;;7.03;2.45;;;3.80;99.90;;;;;;5065676;28;20818;-47
2024/01/13 03:42:31;;;;;;;4.43;2.33;;;4.00;99.90;;;;;;5056711;28;20052;-51
2024/01/13 03:44:57;;;;;;;7.15;2.30;;;3.90;99.90;;;;;;5060103;28;20040;-48
2024/01/13 03:47:23;;;;;;;3.83;2.05;;;4.10;99.90;;;;;;5061546;28;20317;-47
2024/01/13 03:49:49;;;;;;;5.90;2.10;;;3.90;99.90;;;;;;5060287;28;20040;-48
2024/01/13 03:52:14;;;;;;;3.72;1.73;;;4.00;99.90;;;;;;5064444;28;20047;-50
2024/01/13 03:54:41;;;;;;;6.68;2.05;;;3.90;99.90;;;;;;5065288;28;20071;-49
2024/01/13 03:57:07;;;;;;;4.22;1.80;;;4.00;99.90;;;;;;5064171;28;20587;-49
2024/01/13 03:59:33;;;;;;;6.15;2.00;;;3.90;99.90;;;;;;5064015;28;20052;-48
2024/01/13 04:01:58;;;;;;;5.80;2.08;;;3.90;99.90;;;;;;5060705;28;20064;-48
2024/01/13 04:04:24;;;;;;;6.78;1.92;;;4.00;99.90;;;;;;5064061;28;20036;-47
2024/01/13 04:06:50;;;;;;;7.47;2.22;;;4.00;99.90;;;;;;5061515;28;20041;-51
2024/01/13 04:09:16;;;;;;;8.35;2.13;;;3.90;99.90;;;;;;5063854;28;20419;-48
2024/01/13 04:11:42;;;;;;;5.68;2.28;;;3.80;99.90;;;;;;5063985;28;20045;-49
2024/01/13 04:14:07;;;;;;;6.47;2.67;;;3.90;99.90;;;;;;5059907;28;20029;-47
2024/01/13 04:16:33;;;;;;;6.55;2.50;;;3.90;99.90;;;;;;5060172;28;20106;-48
2024/01/13 04:18:59;;;;;;;8.60;2.55;;;4.00;99.90;;;;;;5064365;28;20068;-48
2024/01/13 04:21:24;;;;;;;8.45;3.38;;;4.00;99.90;;;;;;5060883;28;20076;-48
2024/01/13 04:23:51;;;;;;;7.38;2.78;;;3.80;99.90;;;;;;5062291;28;20066;-51
2024/01/13 04:26:21;;;;;;;7.90;2.50;;;4.00;99.90;;;;;;5062501;28;20036;-47
2024/01/13 04:28:47;;;;;;;10.25;3.65;;;3.80;99.90;;;;;;5064580;28;20483;-48
2024/01/13 04:31:13;;;;;;;9.43;2.75;;;4.00;99.90;;;;;;5059668;28;20043;-48
2024/01/13 04:33:38;;;;;;;12.15;3.40;;;3.90;99.90;;;;;;5064095;28;20032;-50
2024/01/13 04:36:04;;;;;;;6.13;3.20;;;3.90;99.90;;;;;;5062972;28;20135;-51
2024/01/13 04:38:30;;;;;;;7.72;3.10;;;4.00;99.90;;;;;;5064149;28;20438;-47
2024/01/13 04:40:56;;;;;;;12.82;3.08;;;4.00;99.90;;;;;;5064073;28;20059;-49
2024/01/13 04:43:22;;;;;;;8.07;2.90;;;3.80;99.90;;;;;;5063755;28;20105;-49
2024/01/13 04:45:47;;;;;;;7.55;2.67;;;3.90;99.90;;;;;;5063124;28;20041;-49
2024/01/13 04:48:15;;;;;;;7.20;3.00;;;4.00;99.90;;;;;;5062259;28;20052;-49
2024/01/13 04:50:41;;;;;;;7.90;2.75;;;3.80;99.90;;;;;;5050674;28;20037;-48
2024/01/13 04:53:07;;;;;;;8.45;3.50;;;3.80;99.90;;;;;;5064790;28;20033;-47
2024/01/13 04:55:32;;;;;;;5.97;3.15;;;4.10;99.90;;;;;;5064306;28;20066;-48
2024/01/13 04:57:58;;;;;;;8.70;3.47;;;3.90;99.90;;;;;;5062067;28;20060;-51
2024/01/13 05:00:24;;;;;;;6.10;3.20;;;4.00;99.90;;;;;;5062910;28;20043;-49
2024/01/13 05:02:50;;;;;;;10.85;3.42;;;4.00;99.90;;;;;;5063743;28;20964;-48
2024/01/13 05:05:15;;;;;;;10.02;3.15;;;3.90;99.90;;;;;;5062105;28;20147;-50
2024/01/13 05:07:41;;;;;;;7.72;2.88;;;3.90;99.90;;;;;;5063296;28;20392;-50
2024/01/13 05:10:07;;;;;;;8.93;2.97;;;4.00;99.90;;;;;;5062756;28;20547;-47
2024/01/13 05:12:33;;;;;;;4.57;2.28;;;4.10;99.90;;;;;;5062938;28;20143;-49
2024/01/13 05:14:59;;;;;;;6.13;2.50;;;4.00;99.90;;;;;;5062150;28;20121;-48
2024/01/13 05:17:24;;;;;;;8.88;2.83;;;4.00;99.90;;;;;;5041535;28;20127;-48
2024/01/13 05:19:50;;;;;;;7.57;3.17;;;4.10;99.90;;;;;;5052207;28;20392;-53
2024/01/13 05:22:16;;;;;;;4.82;3.03;;;4.00;99.90;;;;;;5054459;28;20578;-48
2024/01/13 05:24:42;;;;;;;7.07;2.70;;;3.90;99.90;;;;;;5063001;28;20055;-50
2024/01/13 05:27:08;;;;;;;5.72;2.47;;;4.10;99.90;;;;;;5045286;28;20040;-50
2024/01/13 05:29:34;;;;;;;8.48;2.83;;;4.10;99.90;;;;;;5062381;28;20045;-51
2024/01/13 05:31:59;;;;;;;10.07;2.63;;;4.00;99.90;;;;;;5061994;28;20457;-50
2024/01/13 05:34:25;;;;;;;7.22;3.13;;;3.90;99.90;;;;;;5059407;28;20055;-50
2024/01/13 05:36:51;;;;;;;9.10;2.35;;;4.10;99.90;;;;;;5062621;28;20051;-48
2024/01/13 05:39:16;;;;;;;6.10;2.85;;;4.10;99.90;;;;;;5061693;28;20072;-48
2024/01/13 05:41:42;;;;;;;7.00;1.90;;;4.00;99.90;;;;;;5058230;28;20159;-50
2024/01/13 05:44:08;;;;;;;5.78;2.03;;;3.80;99.90;;;;;;5052454;28;20048;-49
2024/01/13 05:46:34;;;;;;;2.67;1.90;;;4.00;99.90;;;;;;5062273;28;20045;-49
2024/01/13 05:49:01;;;;;;;5.70;2.10;;;3.90;99.90;;;;;;5061302;28;20036;-49
2024/01/13 05:51:26;;;;;;;4.05;2.20;;;4.00;99.90;;;;;;5055030;28;20138;-47
2024/01/13 05:53:52;;;;;;;5.43;2.33;;;4.00;99.90;;;;;;5054734;28;20415;-47
2024/01/13 05:56:18;;;;;;;7.10;2.45;;;3.80;99.90;;;;;;5060854;28;20072;-51
2024/01/13 05:58:43;;;;;;;2.03;1.58;;;4.00;99.90;;;;;;5056712;28;20036;-47
2024/01/13 06:01:09;;;;;;;5.15;2.25;;;4.00;99.90;;;;;;5059674;28;20040;-47
2024/01/13 06:03:35;;;;;;;3.58;2.05;;;3.80;99.90;;;;;;5060469;28;20399;-48
2024/01/13 06:06:00;;;;;;;3.15;1.90;;;4.00;99.90;;;;;;5060465;28;20071;-48
2024/01/13 06:08:26;;;;;;;2.88;1.58;;;4.10;99.90;;;;;;5059553;28;20031;-49
2024/01/13 06:10:52;;;;;;;6.50;1.95;;;4.10;99.90;;;;;;5059540;28;20066;-47
2024/01/13 06:13:18;;;;;;;4.90;2.08;;;4.10;99.90;;;;;;5060163;28;20047;-50
2024/01/13 06:15:44;;;;;;;5.43;1.90;;;4.00;99.90;;;;;;5059516;28;20049;-51
2024/01/13 06:18:10;;;;;;;4.07;1.73;;;3.90;99.90;;;;;;5059950;28;20106;-47
2024/01/13 06:20:35;;;;;;;3.92;1.65;;;3.90;99.90;;;;;;5046667;28;20059;-51
2024/01/13 06:23:01;;;;;;;5.18;1.70;;;4.00;99.90;;;;;;5060021;28;20029;-47
2024/01/13 06:25:28;;;;;;;4.18;1.63;;;4.00;99.90;;;;;;5059835;28;20052;-49
2024/01/13 06:27:54;;;;;;;2.92;1.50;;;3.90;99.90;;;;;;5059465;28;20047;-51
2024/01/13 06:30:20;;;;;;;2.42;1.40;;;4.10;99.90;;;;;;5059762;28;20033;-47
2024/01/13 06:32:45;;;;;;;3.28;1.30;;;3.90;99.90;;;;;;5059104;28;20427;-49
2024/01/13 06:35:11;;;;;;;1.38;1.00;;;3.90;99.90;;;;;;5059304;28;20040;-48
2024/01/13 06:37:37;;;;;;;2.28;1.17;;;3.90;99.90;;;;;;5059534;28;20098;-52
2024/01/13 06:40:03;;;;;;;1.98;1.35;;;4.10;99.90;;;;;;5058625;28;20043;-49
2024/01/13 06:42:29;;;;;;;3.15;1.35;;;4.00;99.90;;;;;;5058623;28;20036;-49
2024/01/13 06:44:54;;;;;;;2.53;1.40;;;4.00;99.90;;;;;;5059237;28;20044;-47
2024/01/13 06:47:21;;;;;;;3.22;1.50;;;4.00;99.90;;;;;;5058612;28;20284;-48
2024/01/13 06:49:46;;;;;;;2.47;1.00;;;4.00;99.90;;;;;;5059722;28;20331;-50
2024/01/13 06:52:12;;;;;;;2.05;0.90;;;4.00;99.90;;;;;;5063594;28;20524;-48
2024/01/13 06:54:38;;;;;;;2.90;0.90;;;4.00;99.90;;;;;;5063296;28;20047;-50
2024/01/13 06:57:04;;;;;;;1.88;0.95;;;4.10;99.90;;;;;;5062569;28;20036;-49
2024/01/13 06:59:30;;;;;;;2.28;0.90;;;4.10;99.90;;;;;;5063582;28;20187;-49
2024/01/13 07:01:55;;;;;;;2.05;0.98;;;4.00;99.90;;;;;;5062324;28;20040;-47
2024/01/13 07:04:21;;;;;;;3.03;1.23;;;4.10;99.90;;;;;;5063846;28;20404;-51
2024/01/13 07:06:47;;;;;;;3.03;1.20;;;4.00;99.90;;;;;;5063040;28;20048;-47
2024/01/13 07:09:16;;;;;;;5.95;1.70;;;4.00;99.90;;;;;;5063147;28;20556;-47
2024/01/13 07:11:42;;;;;;;;;;;4.00;99.90;;;;;;5062412;28;20036;-48
2024/01/13 07:14:07;;;;;;;4.43;1.70;;;4.10;99.90;;;;;;5060355;28;20028;-48
2024/01/13 07:16:33;;;;;;;2.72;1.35;;;4.00;99.90;;;;;;5063882;28;20036;-47
2024/01/13 07:18:59;;;;;;;2.40;1.50;;;4.10;99.90;;;;;;5063535;28;20135;-47
2024/01/13 07:21:25;;;;;;;4.18;1.70;;;4.10;99.90;;;;;;5063718;28;20564;-49
2024/01/13 07:23:51;;;;;;;4.82;2.05;;;4.10;99.90;;;;;;5062350;28;20040;-50
2024/01/13 07:26:16;;;;;;;5.95;1.80;;;4.10;99.90;;;;;;5052622;28;20040;-50
2024/01/13 07:28:42;;;;;;;2.88;1.60;;;4.20;99.90;;;;;;5063342;28;20763;-51
2024/01/13 07:31:08;;;;;;;4.03;2.15;;;4.10;99.90;;;;;;5062118;28;20109;-47
2024/01/13 07:33:34;;;;;;;6.05;3.00;;;4.00;99.90;;;;;;5062380;28;21235;-50
2024/01/13 07:35:59;;;;;;;8.00;2.90;;;4.20;99.90;;;;;;5063887;28;20044;-46
2024/01/13 07:38:25;;;;;;;5.63;2.92;;;4.10;99.90;;;;;;5061702;28;20044;-49
2024/01/13 07:40:51;;;;;;;8.98;3.50;;;4.20;99.90;;;;;;5060931;28;20552;-48
2024/01/13 07:43:17;;;;;;;7.22;3.30;;;4.10;99.90;;;;;;5062805;28;20525;-53
2024/01/13 07:45:42;;;;;;;12.35;5.60;;;4.00;99.90;;;;;;5051535;28;20037;-51
2024/01/13 07:48:08;;;;;;;10.55;5.82;;;4.10;99.90;;;;;;5059396;28;20048;-48
2024/01/13 07:50:34;;;;;;;14.40;7.28;;;4.20;99.90;;;;;;5062028;28;20029;-49
2024/01/13 07:52:59;;;;;;;12.48;7.32;;;4.00;99.90;;;;;;5062009;28;20467;-48
2024/01/13 07:55:25;;;;;;;14.02;7.50;;;4.10;99.90;;;;;;5060880;28;20509;-52
2024/01/13 07:57:51;;;;;;;16.23;8.60;;;4.30;99.90;;;;;;5061707;28;20127;-49
2024/01/13 08:00:17;;;;;;;18.35;9.63;;;4.20;99.90;;;;;;5060865;28;20041;-49
2024/01/13 08:02:42;;;;;;;17.95;10.25;;;4.30;99.90;;;;;;5061583;28;20036;-52
2024/01/13 08:05:08;;;;;;;17.23;10.95;;;4.10;99.90;;;;;;5061724;28;20102;-49
2024/01/13 08:07:34;;;;;;;22.60;11.95;;;4.30;99.90;;;;;;5060908;28;20044;-49
2024/01/13 08:10:00;;;;;;;22.60;11.77;;;4.10;99.90;;;;;;5060888;28;20040;-50
2024/01/13 08:12:26;;;;;;;21.52;11.02;;;4.20;99.90;;;;;;5062817;28;20043;-52
2024/01/13 08:14:52;;;;;;;27.63;10.85;;;4.30;99.90;;;;;;5061027;28;20356;-48
2024/01/13 08:17:18;;;;;;;22.25;12.00;;;4.30;99.90;;;;;;5062579;28;20037;-52
2024/01/13 08:19:43;;;;;;;28.80;12.95;;;4.40;99.90;;;;;;5061581;28;20052;-55
2024/01/13 08:22:09;;;;;;;26.30;13.23;;;4.40;99.90;;;;;;5057750;28;20598;-47
2024/01/13 08:24:35;;;;;;;28.67;13.88;;;4.30;99.90;;;;;;5057251;28;20040;-51
2024/01/13 08:27:00;;;;;;;27.23;14.43;;;4.30;99.90;;;;;;5057408;28;20056;-48
2024/01/13 08:29:26;;;;;;;32.25;16.60;;;4.40;99.90;;;;;;5055559;28;20044;-48
2024/01/13 08:31:52;;;;;;;39.03;19.42;;;4.40;99.90;;;;;;5060708;28;20040;-49
2024/01/13 08:34:18;;;;;;;32.67;18.05;;;4.30;99.90;;;;;;5060507;28;20044;-47
2024/01/13 08:36:43;;;;;;;43.70;21.17;;;4.20;99.90;;;;;;5059338;28;20384;-50
2024/01/13 08:39:10;;;;;;;44.58;22.90;;;4.30;99.90;;;;;;5060366;28;20140;-47
2024/01/13 08:41:36;;;;;;;43.03;22.30;;;4.30;99.90;;;;;;5060816;28;20045;-48
2024/01/13 08:44:02;;;;;;;49.38;26.10;;;4.30;99.90;;;;;;5057945;28;20074;-47
2024/01/13 08:46:28;;;;;;;49.50;25.02;;;4.20;99.90;;;;;;5057459;28;20052;-49
2024/01/13 08:48:54;;;;;;;49.33;25.77;;;4.30;99.90;;;;;;5046180;28;20052;-48
2024/01/13 08:51:20;;;;;;;53.10;25.33;;;4.20;99.90;;;;;;5057187;28;20525;-48
2024/01/13 08:53:46;;;;;;;47.85;25.10;;;4.20;99.90;;;;;;5054784;28;20043;-47
2024/01/13 08:56:12;;;;;;;48.17;25.58;;;4.20;99.90;;;;;;5055317;28;20142;-47
2024/01/13 08:58:38;;;;;;;45.53;25.08;;;4.30;99.90;;;;;;5052120;28;20044;-48
2024/01/13 09:01:04;;;;;;;46.60;25.48;;;4.30;99.90;;;;;;5060896;28;20385;-50
2024/01/13 09:03:30;;;;;;;45.80;27.30;;;4.10;99.90;;;;;;5052981;28;20093;-48
2024/01/13 09:05:56;;;;;;;51.33;26.83;;;4.20;99.90;;;;;;5054346;28;20290;-48
2024/01/13 09:08:23;;;;;;;66.97;28.77;;;4.20;99.90;;;;;;5058381;28;20040;-47
2024/01/13 09:10:49;;;;;;;47.50;26.48;;;4.20;99.90;;;;;;5060003;28;20258;-47
2024/01/13 09:13:14;;;;;;;52.53;28.05;;;4.30;99.90;;;;;;5060759;28;20528;-48
2024/01/13 09:15:41;;;;;;;57.65;29.88;;;4.30;99.90;;;;;;5060344;28;20041;-47
2024/01/13 09:18:08;;;;;;;56.80;30.50;;;4.30;99.90;;;;;;5061190;28;20087;-48
2024/01/13 09:20:34;;;;;;;58.58;30.95;;;4.30;99.90;;;;;;5060097;28;20036;-50
2024/01/13 09:22:59;;;;;;;50.58;32.75;;;4.20;99.90;;;;;;5060687;28;20039;-51
2024/01/13 09:25:25;;;;;;;55.70;31.63;;;4.20;99.90;;;;;;5059071;28;20040;-47
2024/01/13 09:27:54;;;;;;;64.65;33.53;;;4.30;99.90;;;;;;5060615;28;20485;-48
2024/01/13 09:30:21;;;;;;;62.75;36.83;;;4.40;99.90;;;;;;5060188;28;20044;-49
2024/01/13 09:32:47;;;;;;;61.80;34.42;;;4.30;99.90;;;;;;5050177;28;20173;-49
2024/01/13 09:35:13;;;;;;;65.43;36.00;;;4.40;99.90;;;;;;5059174;28;20036;-48
2024/01/13 09:37:39;;;;;;;66.72;35.72;;;4.40;99.90;;;;;;5060037;28;20402;-49
2024/01/13 09:40:06;;;;;;;67.80;37.20;;;4.40;99.90;;;;;;5059553;28;20133;-50
2024/01/13 09:42:51;;;;;;;70.72;38.83;;;4.30;99.90;;;;;;5060055;28;20040;-47
2024/01/13 09:45:18;;;;;;;67.47;36.75;;;4.30;99.90;;;;;;5059164;28;20044;-50
2024/01/13 09:47:45;;;;;;;63.83;36.88;;;4.30;99.90;;;;;;5058650;28;20036;-48
2024/01/13 09:50:11;;;;;;;63.28;36.42;;;4.30;99.90;;;;;;5059388;28;20036;-48
2024/01/13 09:52:39;;;;;;;67.43;37.08;;;4.40;99.90;;;;;;5060967;28;20526;-48
2024/01/13 09:55:09;;;;;;;61.50;35.20;;;4.30;99.90;;;;;;5060219;28;20072;-48
2024/01/13 09:57:35;;;;;;;61.65;36.15;;;4.40;99.90;;;;;;5059125;28;20044;-51
2024/01/13 10:00:02;;;;;;;66.00;37.60;;;4.30;99.90;;;;;;5059925;28;20048;-48
2024/01/13 10:02:28;;;;;;;65.93;35.97;;;4.40;99.90;;;;;;5059516;28;20055;-50
2024/01/13 10:04:54;;;;;;;64.43;38.20;;;4.40;99.90;;;;;;5059205;28;20045;-49
2024/01/13 10:07:20;;;;;;;64.95;36.80;;;4.40;99.90;;;;;;5058272;28;20498;-50
2024/01/13 10:09:46;;;;;;;56.15;35.08;;;4.30;99.90;;;;;;5059427;28;20049;-50
2024/01/13 10:12:12;;;;;;;66.07;36.10;;;4.40;99.90;;;;;;5059615;28;20047;-48
2024/01/13 10:14:39;;;;;;;65.07;35.92;;;4.50;99.90;;;;;;5057325;28;20475;-48
2024/01/13 10:17:05;;;;;;;67.80;35.42;;;4.40;99.90;;;;;;5058942;28;20040;-51
2024/01/13 10:19:40;;;;;;;54.40;33.45;;;4.40;99.90;;;;;;5058058;28;20070;-49
2024/01/13 10:22:06;;;;;;;64.03;34.55;;;4.50;99.90;;;;;;5060195;28;20071;-50
2024/01/13 10:24:33;;;;;;;54.55;31.50;;;4.50;99.90;;;;;;5058175;28;20481;-50
2024/01/13 10:27:00;;;;;;;66.95;33.80;;;4.50;99.90;;;;;;5058937;28;20040;-49
2024/01/13 10:29:26;;;;;;;54.67;31.00;;;4.60;99.90;;;;;;5058701;28;20375;-47
2024/01/13 10:31:52;;;;;;;59.05;31.58;;;4.70;99.90;;;;;;5059612;28;20044;-50
2024/01/13 10:34:19;;;;;;;54.38;30.20;;;4.70;99.90;;;;;;5059353;28;20494;-51
2024/01/13 10:36:45;;;;;;;44.17;27.25;;;4.70;99.90;;;;;;5059964;28;20107;-50
2024/01/13 10:39:11;;;;;;;48.00;25.98;;;4.70;99.90;;;;;;5057268;28;20051;-50
2024/01/13 10:41:42;;;;;;;46.97;26.10;;;4.70;99.90;;;;;;5058424;28;20434;-48
2024/01/13 10:44:09;;;;;;;43.22;24.10;;;4.70;99.90;;;;;;5057272;28;20051;-50
2024/01/13 10:46:40;;;;;;;58.00;23.52;;;4.80;99.90;;;;;;5059606;28;20124;-48
2024/01/13 10:49:16;;;;;;;39.72;22.20;;;4.70;99.90;;;;;;5058862;28;20439;-49
2024/01/13 10:51:56;;;;;;;40.63;21.95;;;4.70;99.90;;;;;;5056834;28;20036;-50
2024/01/13 10:54:25;;;;;;;40.75;21.77;;;4.90;99.90;;;;;;5058056;28;20511;-50
2024/01/13 10:56:55;;;;;;;;;;;4.70;99.90;;;;;;5059236;28;20151;-47
2024/01/13 10:59:22;;;;;;;42.08;21.88;;;4.90;99.90;;;;;;5058725;28;20007;-48
2024/01/13 11:01:49;;;;;;;40.58;20.98;;;4.90;99.90;;;;;;5058825;28;20052;-50
2024/01/13 11:04:17;;;;;;;36.38;19.75;;;4.80;99.90;;;;;;5057906;28;20045;-46
2024/01/13 11:06:43;;;;;;;37.70;20.10;;;4.80;99.90;;;;;;5059967;28;20368;-47
2024/01/13 11:09:11;;;;;;;39.10;20.08;;;4.90;99.90;;;;;;5058760;28;20075;-50
2024/01/13 11:11:47;;;;;;;33.40;17.55;;;5.10;99.90;;;;;;5058268;28;20068;-51
2024/01/13 11:14:22;;;;;;;32.60;16.02;;;5.00;99.90;;;;;;5059526;28;20282;-51
2024/01/13 11:16:50;;;;;;;28.65;15.15;;;5.00;99.90;;;;;;5056761;28;20685;-50
2024/01/13 11:19:16;;;;;;;29.15;16.55;;;5.10;99.90;;;;;;5058096;28;20459;-51
2024/01/13 11:21:48;;;;;;;29.63;16.15;;;5.30;99.90;;;;;;5047831;28;20056;-49
2024/01/13 11:24:15;;;;;;;34.38;16.42;;;5.20;99.90;;;;;;5059229;28;20439;-49
2024/01/13 11:26:48;;;;;;;26.63;15.85;;;5.10;99.90;;;;;;5057939;28;20514;-49
2024/01/13 11:29:18;;;;;;;30.45;13.90;;;5.10;99.90;;;;;;5056806;28;20680;-50
2024/01/13 11:31:47;;;;;;;33.53;15.00;;;5.10;99.90;;;;;;5056687;28;20145;-51
2024/01/13 11:34:13;;;;;;;;;;;5.20;99.90;;;;;;5058950;28;20091;-47
2024/01/13 11:36:43;;;;;;;24.55;13.88;;;5.30;99.90;;;;;;5060890;28;20327;-48
2024/01/13 11:39:09;;;;;;;24.48;12.65;;;5.20;99.90;;;;;;5062532;28;20052;-53
2024/01/13 11:41:52;;;;;;;30.85;13.60;;;5.20;99.90;;;;;;5062176;28;20045;-51
2024/01/13 11:44:22;;;;;;;30.95;12.98;;;5.10;99.90;;;;;;5062902;28;20075;-52
2024/01/13 11:47:07;;;;;;;31.63;13.73;;;5.20;99.90;;;;;;5062823;28;21281;-49
2024/01/13 11:49:43;;;;;;;30.40;13.00;;;5.20;99.90;;;;;;5050104;28;20048;-48
2024/01/13 11:52:16;;;;;;;21.88;11.32;;;5.30;99.90;;;;;;5061548;28;20082;-51
2024/01/13 11:54:46;;;;;;;28.58;11.10;;;5.20;99.90;;;;;;5062457;28;20090;-51
2024/01/13 11:57:14;;;;;;;22.98;11.05;;;5.20;99.90;;;;;;5062454;28;20122;-51
2024/01/13 11:59:40;;;;;;;22.05;9.80;;;5.20;99.90;;;;;;5062785;28;20041;-51
2024/01/13 12:02:06;;;;;;;19.83;9.13;;;5.20;99.90;;;;;;5062364;28;20390;-48
2024/01/13 12:04:34;;;;;;;21.25;10.20;;;5.30;99.90;;;;;;5061450;28;20094;-48
2024/01/13 12:07:01;;;;;;;24.52;9.48;;;5.30;99.90;;;;;;5061713;28;20584;-48
2024/01/13 12:09:28;;;;;;;20.10;8.18;;;5.20;99.90;;;;;;5062653;28;20045;-47
2024/01/13 12:11:59;;;;;;;19.52;8.57;;;5.30;99.90;;;;;;5062787;28;20098;-48
2024/01/13 12:14:28;;;;;;;20.00;8.38;;;5.30;99.90;;;;;;5061989;28;20463;-47
2024/01/13 12:16:59;;;;;;;14.60;7.15;;;5.40;99.90;;;;;;5061028;28;20069;-46
2024/01/13 12:19:32;;;;;;;14.60;7.72;;;5.40;99.90;;;;;;5061556;28;20056;-47
2024/01/13 12:21:58;;;;;;;16.92;7.25;;;5.40;99.90;;;;;;5060944;28;20044;-51
2024/01/13 12:24:28;;;;;;;17.33;6.93;;;5.30;99.90;;;;;;5062508;28;20045;-48
2024/01/13 12:26:54;;;;;;;17.83;7.22;;;5.40;99.90;;;;;;5061802;28;20098;-47
2024/01/13 12:29:30;;;;;;;12.98;7.00;;;5.40;99.90;;;;;;5061894;28;20147;-47
2024/01/13 12:32:00;;;;;;;19.50;7.30;;;5.40;99.90;;;;;;5062221;28;20826;-48
2024/01/13 12:34:27;;;;;;;13.73;6.07;;;5.50;99.90;;;;;;5060785;28;20040;-48
2024/01/13 12:36:54;;;;;;;14.07;6.63;;;5.50;99.90;;;;;;5062463;28;20040;-48
2024/01/13 12:39:20;;;;;;;14.02;5.70;;;5.40;99.90;;;;;;5062242;28;20163;-49
2024/01/13 12:41:50;;;;;;;13.25;6.22;;;5.50;99.90;;;;;;5063054;28;20097;-50
2024/01/13 12:44:16;;;;;;;13.40;5.55;;;5.40;99.90;;;;;;5062220;28;20160;-50
2024/01/13 12:46:42;;;;;;;11.52;5.53;;;5.60;99.90;;;;;;5062010;28;20036;-49